METAR AND TAF INFORMATION
METAR FOR ENTO
ADDS - METARS form results

(0424 UTC 26 February 2020)
Data provider http://aviationweather.gov/metar/data/
 
METAR text: ENTO 260420Z AUTO 02014KT 360V050 9999 NCD M02/M09 Q0992
Conditions at: ENTO (TORP (CIV/NOR-AF, NO) observed 0420 UTC 26 February 2020
Temperature: -2.0°C (28°F)
Dewpoint: -9.0°C (16°F) [RH = 59%]
Pressure (altimeter): 29.29 inches Hg (992.0 mb)
Winds: from the NNE (20 degrees) at 16 MPH (14 knots; 7.2 m/s)
Visibility: 6 or more miles (10+ km)
Ceiling: at least 12,000 feet AGL
Clouds: sky clear below 12,000 feet AGL
Weather: no significant weather observed at this time

METAR text: ENTO 260350Z AUTO 02013KT 360V050 9999 NCD M02/M09 Q0992
Conditions at: ENTO (TORP (CIV/NOR-AF, NO) observed 0350 UTC 26 February 2020
Temperature: -2.0°C (28°F)
Dewpoint: -9.0°C (16°F) [RH = 59%]
Pressure (altimeter): 29.29 inches Hg (992.0 mb)
Winds: from the NNE (20 degrees) at 15 MPH (13 knots; 6.7 m/s)
Visibility: 6 or more miles (10+ km)
Ceiling: at least 12,000 feet AGL
Clouds: sky clear below 12,000 feet AGL
Weather: no significant weather observed at this time

Forecast for: ENTO (TORP (CIV/NOR-AF, NO)
Text: TAF ENTO 2600/2624 03015KT 9999 FEW015 BKN030
Forecast period: 0000 UTC 26 February 2020 to 0000 UTC 27 February 2020
Forecast type: FROM: standard forecast or significant change
Winds: from the NNE (30 degrees) at 17 MPH (15 knots; 7.7 m/s)
Visibility: 6 or more miles 10+ km)
Ceiling: 3000 feet AGL
Clouds: few clouds at 1500 feet AGL
broken clouds at 3000 feet AGL
Weather: no significant weather forecast for this period
Text: TEMPO 2600/2614 04017G27KT
Forecast period: 0000 to 1400 UTC 26 February 2020
Forecast type: TEMPORARY: The following changes expected for less than half the time period
Winds: from the NE (40 degrees) at 20 MPH (17 knots; 8.7 m/s)
gusting to 31 MPH (27 knots; 13.9 m/s)
Visibility: missing
Ceiling: unknown
Clouds: missing
Weather: no significant weather forecast for this period

 AIRPORT MAP

 RUNWAY INFORMATION
Runway 18 Runway length 9675 ft Runway width 148 ft
Runway elevation 282 ft Runway displaced threshold 1231 ft Runway heading 179
Runway 36 Runway length 9675 ft Runway width 148 ft
Runway elevation 255 ft Runway displaced threshold 1231 ft Runway heading 359

 AIRPORT FREQUENCIES
Type ATIS Name ATIS Frequency 119.075 MHZ
Type GND Name GND Frequency 126.175 MHZ
Type TCA Name FARRIS TCA Frequency 134.05 MHZ
Type TWR Name TWR Frequency 118.65 MHZ

 AIRPORT NEAR NAVIGATION AIDS
Type VOR-DME Name Torp Frequency 113850 KHZ



Powered by Virtual Airlines Manager [v2.6.2]